MMMD/MID METAR and TAF weather

Enter ICAO airport designator
Station Type Date Time Source
MMMD METAR 2019/02/23 00:48 UTC NOAA

MMMD 230048Z 11017KT 7SM SKC 31/20 A2990


Station Type Date Time Source
MMMD Decoded METAR 2019/02/23 00:48 UTC NOAA

Merida / lic Manuel Crecencio, Mexico (MMMD) 20-56N 089-39W 11M
Feb 22, 2019 - 07:48 PM EST / 2019.02.23 0048 UTC
Wind: from the ESE (110 degrees) at 20 MPH (17 KT):0
Visibility: 7 mile(s):0
Sky conditions: clear
Temperature: 87 F (31 C)
Dew Point: 68 F (20 C)
Relative Humidity: 52%
Pressure (altimeter): 29.9 in. Hg (1012 hPa)
ob: MMMD 230048Z 11017KT 7SM SKC 31/20 A2990
cycle: 1

Station Type Date Time Source
MMMD TAF 2019/02/22 18:51 UTC NOAA

TAF MMMD 221649Z 2218/2324 13020KT 6SM HZ BKN020 TX36/2221Z TN23/2312Z
BECMG 2220/2221 13025KT BKN025
TEMPO 2221/2301 VC RA
FM230200 12015KT P6SM SCT025
BECMG 2305/2306 09008KT SKC
FM231000 12008KT 5SM HZ BKN015
TEMPO 2311/2315 3SM BR HZ
FM231600 12010KT 6SM HZ BKN020
BECMG 2320/2321 12015KT BKN025


Example: see airport list